Time;durP1;ratioP1;P1;durP2;ratioP2;P2;SDS_P1;SDS_P2;PMS_P1;PMS_P2;Temp;Humidity;BMP_temperature;BMP_pressure;BME280_temperature;BME280_humidity;BME280_pressure;Samples;Min_cycle;Max_cycle;Signal;HPM_P1;HPM_P2
2021/04/17 00:00:20;;;;;;;1.03;0.70;;;8.30;97.70;;;;;;5065528;28;20690;-77
2021/04/17 00:02:46;;;;;;;0.87;0.83;;;8.20;97.90;;;;;;5066428;28;20211;-77
2021/04/17 00:05:14;;;;;;;1.53;1.10;;;8.20;98.00;;;;;;5066037;28;20203;-77
2021/04/17 00:07:41;;;;;;;1.30;0.90;;;7.90;98.40;;;;;;5066195;28;20231;-77
2021/04/17 00:10:08;;;;;;;1.43;0.80;;;7.80;98.90;;;;;;5065633;28;20341;-76
2021/04/17 00:12:35;;;;;;;1.23;1.00;;;7.80;99.10;;;;;;5065571;28;20688;-76
2021/04/17 00:15:01;;;;;;;0.97;0.83;;;7.90;99.40;;;;;;5065499;28;20236;-77
2021/04/17 00:17:29;;;;;;;1.93;1.10;;;7.90;99.30;;;;;;5065353;28;20219;-76
2021/04/17 00:19:55;;;;;;;0.60;0.60;;;7.90;99.40;;;;;;5065518;28;20218;-77
2021/04/17 00:22:22;;;;;;;2.20;0.80;;;7.90;99.60;;;;;;5065558;28;20632;-76
2021/04/17 00:24:48;;;;;;;1.30;1.00;;;7.90;99.60;;;;;;5064999;28;20550;-76
2021/04/17 00:27:15;;;;;;;0.73;0.70;;;8.00;99.70;;;;;;5065006;28;20729;-76
2021/04/17 00:29:42;;;;;;;1.20;1.10;;;8.00;99.60;;;;;;5065637;28;20207;-76
2021/04/17 00:32:09;;;;;;;0.90;0.90;;;7.80;99.80;;;;;;5066422;28;20299;-81
2021/04/17 00:34:36;;;;;;;1.10;1.00;;;7.90;99.90;;;;;;5066291;28;20739;-76
2021/04/17 00:37:03;;;;;;;3.33;0.70;;;7.90;99.90;;;;;;5080585;28;20256;-76
2021/04/17 00:39:30;;;;;;;0.70;0.67;;;7.70;99.90;;;;;;5086023;28;20685;-76
2021/04/17 00:41:56;;;;;;;0.70;0.70;;;7.70;99.90;;;;;;5085723;28;20689;-76
2021/04/17 00:44:23;;;;;;;1.77;1.10;;;7.80;99.90;;;;;;5069988;28;20344;-76
2021/04/17 00:46:50;;;;;;;1.30;0.90;;;7.70;99.90;;;;;;5067229;28;20276;-74
2021/04/17 00:49:16;;;;;;;1.60;1.00;;;7.60;99.90;;;;;;5087669;28;20199;-77
2021/04/17 00:51:43;;;;;;;0.80;0.80;;;7.60;99.90;;;;;;5088138;28;20203;-76
2021/04/17 00:54:09;;;;;;;1.27;1.00;;;7.60;99.90;;;;;;5088101;28;20210;-78
2021/04/17 00:56:36;;;;;;;0.80;0.80;;;7.50;99.90;;;;;;5088020;28;20206;-78
2021/04/17 00:59:03;;;;;;;0.90;0.90;;;7.50;99.90;;;;;;5087772;28;20206;-79
2021/04/17 01:01:29;;;;;;;1.10;1.03;;;7.40;99.90;;;;;;5089840;28;20209;-80
2021/04/17 01:04:02;;;;;;;2.77;1.17;;;7.40;99.90;;;;;;5091532;28;20206;-79
2021/04/17 01:06:36;;;;;;;1.50;0.93;;;7.30;99.90;;;;;;5079192;28;20235;-79
2021/04/17 01:09:08;;;;;;;1.63;1.10;;;7.30;99.90;;;;;;5071269;28;20207;-79
2021/04/17 01:11:40;;;;;;;2.47;1.23;;;7.20;99.90;;;;;;5071514;28;20305;-78
2021/04/17 01:14:08;;;;;;;1.00;0.80;;;7.20;99.90;;;;;;5071630;28;20210;-79
2021/04/17 01:16:34;;;;;;;1.20;1.07;;;7.20;99.90;;;;;;5070551;28;20776;-79
2021/04/17 01:19:04;;;;;;;1.40;1.17;;;7.20;99.90;;;;;;5071270;28;20211;-79
2021/04/17 01:21:32;;;;;;;1.67;0.80;;;7.20;99.90;;;;;;5071326;28;20204;-77
2021/04/17 01:24:06;;;;;;;1.20;0.83;;;7.20;99.90;;;;;;5070510;28;20211;-76
2021/04/17 01:26:33;;;;;;;1.57;1.20;;;7.30;99.90;;;;;;5071237;28;20223;-76
2021/04/17 01:28:59;;;;;;;1.10;1.00;;;7.20;99.90;;;;;;5071102;28;20200;-75
2021/04/17 01:31:29;;;;;;;1.10;1.00;;;7.30;99.90;;;;;;5070836;28;20233;-75
2021/04/17 01:33:58;;;;;;;1.57;1.07;;;7.50;99.90;;;;;;5071329;28;20254;-76
2021/04/17 01:36:27;;;;;;;1.60;1.00;;;7.60;99.90;;;;;;5070864;28;20211;-76
2021/04/17 01:38:56;;;;;;;1.00;1.00;;;7.80;99.90;;;;;;5070989;28;20215;-76
2021/04/17 01:41:26;;;;;;;2.50;1.00;;;7.90;99.90;;;;;;5071044;28;20216;-76
2021/04/17 01:43:56;;;;;;;1.77;1.03;;;8.00;99.90;;;;;;5070917;28;20199;-76
2021/04/17 01:46:26;;;;;;;1.57;1.20;;;8.10;99.90;;;;;;5070497;28;20705;-76
2021/04/17 01:48:57;;;;;;;2.30;1.13;;;8.10;99.90;;;;;;5070691;28;20207;-76
2021/04/17 01:51:25;;;;;;;1.13;1.03;;;8.20;99.90;;;;;;5070366;28;20592;-76
2021/04/17 01:53:52;;;;;;;1.60;1.00;;;8.20;99.90;;;;;;5070604;28;20204;-76
2021/04/17 01:56:20;;;;;;;0.97;0.93;;;8.20;99.90;;;;;;5070358;28;20658;-76
2021/04/17 01:58:48;;;;;;;2.87;1.30;;;8.20;99.90;;;;;;5070636;28;20207;-77
2021/04/17 02:01:18;;;;;;;1.97;1.00;;;8.20;99.90;;;;;;5069884;28;20947;-76
2021/04/17 02:03:45;;;;;;;2.10;1.20;;;8.00;99.90;;;;;;5070152;28;20636;-76
2021/04/17 02:06:11;;;;;;;1.03;0.80;;;7.90;99.90;;;;;;5070248;28;20234;-76
2021/04/17 02:08:40;;;;;;;2.17;1.20;;;7.80;99.90;;;;;;5070475;28;20248;-76
2021/04/17 02:11:06;;;;;;;2.43;1.00;;;7.70;99.90;;;;;;5070100;28;20218;-76
2021/04/17 02:13:35;;;;;;;0.90;0.90;;;7.70;99.90;;;;;;5069081;28;20208;-76
2021/04/17 02:16:05;;;;;;;1.30;1.00;;;7.80;99.90;;;;;;5069722;28;20323;-76
2021/04/17 02:18:36;;;;;;;1.20;1.00;;;7.90;99.90;;;;;;5070310;28;20203;-76
2021/04/17 02:21:04;;;;;;;0.87;0.87;;;8.00;99.90;;;;;;5070152;28;20196;-76
2021/04/17 02:23:30;;;;;;;2.27;1.00;;;8.00;99.90;;;;;;5070008;28;20256;-76
2021/04/17 02:25:57;;;;;;;1.80;0.90;;;7.90;99.90;;;;;;5069723;28;20223;-76
2021/04/17 02:28:25;;;;;;;0.93;0.93;;;7.80;99.90;;;;;;5069985;28;20729;-76
2021/04/17 02:30:51;;;;;;;1.70;1.03;;;7.50;99.90;;;;;;5069831;28;20207;-77
2021/04/17 02:33:17;;;;;;;1.30;0.90;;;7.50;99.90;;;;;;5069755;28;20211;-76
2021/04/17 02:35:44;;;;;;;2.43;1.10;;;7.40;99.90;;;;;;5069726;28;20253;-76
2021/04/17 02:38:11;;;;;;;1.57;1.20;;;7.40;99.90;;;;;;5069675;28;20253;-76
2021/04/17 02:40:37;;;;;;;0.90;0.90;;;7.30;99.90;;;;;;5069530;28;20662;-76
2021/04/17 02:43:03;;;;;;;1.20;1.03;;;7.30;99.90;;;;;;5068740;28;20687;-76
2021/04/17 02:45:29;;;;;;;1.10;1.00;;;7.50;99.90;;;;;;5069138;28;20723;-76
2021/04/17 02:47:56;;;;;;;1.60;1.50;;;7.40;99.90;;;;;;5069469;28;20630;-76
2021/04/17 02:50:22;;;;;;;1.83;1.20;;;7.30;99.90;;;;;;5069299;28;20208;-76
2021/04/17 02:52:50;;;;;;;1.70;0.80;;;7.20;99.90;;;;;;5069402;28;20207;-76
2021/04/17 02:55:17;;;;;;;1.00;0.90;;;7.40;99.90;;;;;;5069160;28;20619;-76
2021/04/17 02:57:43;;;;;;;1.20;1.20;;;7.40;99.90;;;;;;5069357;28;20222;-76
2021/04/17 03:00:12;;;;;;;1.10;1.00;;;7.40;99.90;;;;;;5069224;28;20341;-77
2021/04/17 03:02:39;;;;;;;1.33;1.00;;;7.30;99.90;;;;;;5069286;28;20230;-77
2021/04/17 03:05:06;;;;;;;1.80;1.23;;;7.40;99.90;;;;;;5068899;28;20701;-76
2021/04/17 03:07:32;;;;;;;2.07;1.10;;;7.50;99.90;;;;;;5069091;28;20239;-76
2021/04/17 03:09:59;;;;;;;1.50;1.30;;;7.60;99.90;;;;;;5068802;28;20218;-76
2021/04/17 03:12:25;;;;;;;1.43;1.20;;;7.70;99.90;;;;;;5068815;28;20738;-76
2021/04/17 03:14:51;;;;;;;1.67;1.57;;;7.50;99.90;;;;;;5068811;28;20235;-76
2021/04/17 03:17:17;;;;;;;1.30;1.20;;;7.60;99.90;;;;;;5068807;28;20560;-76
2021/04/17 03:19:44;;;;;;;1.63;1.20;;;7.60;99.90;;;;;;5068260;28;20284;-75
2021/04/17 03:22:10;;;;;;;1.60;1.50;;;7.60;99.90;;;;;;5068508;28;20210;-75
2021/04/17 03:24:37;;;;;;;1.57;0.90;;;7.70;99.90;;;;;;5068624;28;20207;-78
2021/04/17 03:27:06;;;;;;;1.60;1.40;;;7.80;99.90;;;;;;5068771;28;20721;-76
2021/04/17 03:29:32;;;;;;;2.83;1.20;;;7.60;99.90;;;;;;5069004;28;20243;-76
2021/04/17 03:31:58;;;;;;;1.93;1.40;;;7.60;99.90;;;;;;5068669;28;20264;-77
2021/04/17 03:34:24;;;;;;;1.73;1.30;;;7.60;99.90;;;;;;5068381;28;20729;-77
2021/04/17 03:36:51;;;;;;;1.63;1.20;;;7.60;99.90;;;;;;5068656;28;20211;-77
2021/04/17 03:39:17;;;;;;;1.77;1.23;;;7.60;99.90;;;;;;5068640;28;20203;-76
2021/04/17 03:41:43;;;;;;;1.80;1.57;;;7.80;99.90;;;;;;5068602;28;20199;-76
2021/04/17 03:44:11;;;;;;;1.20;1.10;;;7.80;99.90;;;;;;5068495;28;20223;-77
2021/04/17 03:46:37;;;;;;;4.00;1.37;;;7.90;99.90;;;;;;5068682;28;20285;-77
2021/04/17 03:49:04;;;;;;;2.07;1.27;;;7.90;99.90;;;;;;5068667;28;20208;-76
2021/04/17 03:51:30;;;;;;;2.30;1.40;;;7.60;99.90;;;;;;5068268;28;20345;-76
2021/04/17 03:53:57;;;;;;;1.63;1.53;;;7.60;99.90;;;;;;5068662;28;20207;-76
2021/04/17 03:56:23;;;;;;;2.30;1.20;;;7.70;99.90;;;;;;5068199;28;20207;-76
2021/04/17 03:58:50;;;;;;;1.97;1.30;;;7.80;99.90;;;;;;5068743;28;20230;-76
2021/04/17 04:01:17;;;;;;;1.20;1.10;;;7.80;99.90;;;;;;5068373;28;20212;-76
2021/04/17 04:03:43;;;;;;;1.70;1.60;;;7.80;99.90;;;;;;5068636;28;20214;-76
2021/04/17 04:06:09;;;;;;;2.17;1.07;;;7.90;99.90;;;;;;5068253;28;20262;-76
2021/04/17 04:08:35;;;;;;;4.90;1.50;;;7.90;99.90;;;;;;5068200;28;20701;-76
2021/04/17 04:11:01;;;;;;;2.40;1.27;;;7.90;99.90;;;;;;5068102;28;20245;-76
2021/04/17 04:13:27;;;;;;;2.20;1.67;;;7.90;99.90;;;;;;5068517;28;20614;-76
2021/04/17 04:15:54;;;;;;;2.97;1.60;;;7.90;99.90;;;;;;5068021;28;20256;-76
2021/04/17 04:18:21;;;;;;;1.73;1.37;;;7.80;99.90;;;;;;5067802;28;20700;-75
2021/04/17 04:20:47;;;;;;;1.43;1.33;;;7.80;99.90;;;;;;5068127;28;20204;-75
2021/04/17 04:23:13;;;;;;;1.50;1.40;;;7.90;99.90;;;;;;5067883;28;20208;-76
2021/04/17 04:25:39;;;;;;;3.47;2.17;;;7.90;99.90;;;;;;5068372;28;20327;-76
2021/04/17 04:28:06;;;;;;;1.50;1.40;;;7.90;99.90;;;;;;5068052;28;20210;-76
2021/04/17 04:30:32;;;;;;;2.50;1.60;;;7.90;99.90;;;;;;5068249;28;20223;-76
2021/04/17 04:32:58;;;;;;;1.53;1.43;;;8.00;99.90;;;;;;5067755;28;20695;-75
2021/04/17 04:35:25;;;;;;;2.10;1.50;;;8.00;99.90;;;;;;5068507;28;20677;-75
2021/04/17 04:37:51;;;;;;;1.80;1.70;;;8.00;99.90;;;;;;5072212;28;20222;-74
2021/04/17 04:40:17;;;;;;;2.63;2.03;;;7.90;99.90;;;;;;5071719;28;20215;-74
2021/04/17 04:42:43;;;;;;;2.90;1.70;;;7.90;99.90;;;;;;5071538;28;20576;-74
2021/04/17 04:45:11;;;;;;;3.40;1.73;;;7.90;99.90;;;;;;5071602;28;20204;-74
2021/04/17 04:47:37;;;;;;;1.63;1.50;;;7.90;99.90;;;;;;5071697;28;20231;-74
2021/04/17 04:50:05;;;;;;;1.40;1.30;;;7.90;99.90;;;;;;5071216;28;20211;-77
2021/04/17 04:52:32;;;;;;;2.23;1.50;;;8.00;99.90;;;;;;5071993;28;20215;-77
2021/04/17 04:54:58;;;;;;;2.07;1.20;;;8.00;99.90;;;;;;5071930;28;20211;-77
2021/04/17 04:57:25;;;;;;;1.53;1.20;;;8.00;99.90;;;;;;5071350;28;20203;-77
2021/04/17 04:59:51;;;;;;;1.20;1.10;;;8.10;99.90;;;;;;5071469;28;20208;-76
2021/04/17 05:02:17;;;;;;;1.33;1.17;;;8.00;99.90;;;;;;5071595;28;20207;-76
2021/04/17 05:04:43;;;;;;;1.53;1.43;;;8.10;99.90;;;;;;5071558;28;20207;-76
2021/04/17 05:07:09;;;;;;;2.87;1.53;;;8.10;99.90;;;;;;5071450;28;20239;-77
2021/04/17 05:09:36;;;;;;;4.30;1.50;;;8.10;99.90;;;;;;5071471;28;20219;-76
2021/04/17 05:12:03;;;;;;;2.20;1.30;;;8.10;99.90;;;;;;5071174;28;20237;-77
2021/04/17 05:14:29;;;;;;;2.13;1.60;;;8.10;99.90;;;;;;5071162;28;20208;-77
2021/04/17 05:16:55;;;;;;;1.90;1.80;;;8.10;99.90;;;;;;5071272;28;20207;-77
2021/04/17 05:19:21;;;;;;;2.43;1.33;;;8.20;99.90;;;;;;5071229;28;20222;-76
2021/04/17 05:21:47;;;;;;;1.93;1.50;;;8.20;99.90;;;;;;5071033;28;20243;-77
2021/04/17 05:24:14;;;;;;;3.50;1.97;;;8.20;99.90;;;;;;5071406;28;20212;-76
2021/04/17 05:26:40;;;;;;;2.00;1.80;;;8.20;99.90;;;;;;5071154;28;20227;-77
2021/04/17 05:29:07;;;;;;;4.00;1.77;;;8.20;99.90;;;;;;5071080;28;20266;-77
2021/04/17 05:31:35;;;;;;;2.17;1.17;;;8.20;99.90;;;;;;5070979;28;20210;-76
2021/04/17 05:34:01;;;;;;;2.73;1.53;;;8.20;99.90;;;;;;5071141;28;20207;-76
2021/04/17 05:36:27;;;;;;;1.67;1.57;;;8.20;99.90;;;;;;5070830;28;20207;-76
2021/04/17 05:38:53;;;;;;;2.13;1.60;;;8.20;99.90;;;;;;5070983;28;20200;-76
2021/04/17 05:41:20;;;;;;;1.57;1.47;;;8.10;99.90;;;;;;5070780;28;20214;-77
2021/04/17 05:43:47;;;;;;;2.37;1.90;;;8.10;99.90;;;;;;5070497;28;20701;-76
2021/04/17 05:46:13;;;;;;;2.87;1.50;;;8.00;99.90;;;;;;5070300;28;20745;-76
2021/04/17 05:48:39;;;;;;;6.03;1.60;;;8.00;99.90;;;;;;5070173;28;20218;-76
2021/04/17 05:51:06;;;;;;;2.10;1.50;;;8.10;99.90;;;;;;5070466;28;20200;-76
2021/04/17 05:53:32;;;;;;;11.13;2.00;;;8.10;99.90;;;;;;5070687;28;20241;-76
2021/04/17 05:55:58;;;;;;;4.27;1.50;;;8.10;99.90;;;;;;5070368;28;20235;-76
2021/04/17 05:58:25;;;;;;;1.63;1.40;;;8.10;99.90;;;;;;5070495;28;20230;-76
2021/04/17 06:00:52;;;;;;;1.50;1.40;;;8.20;99.90;;;;;;5070599;28;20207;-76
2021/04/17 06:03:18;;;;;;;3.00;1.37;;;8.20;99.90;;;;;;5070251;28;20204;-76
2021/04/17 06:05:44;;;;;;;1.20;1.10;;;8.20;99.90;;;;;;5070286;28;20208;-75
2021/04/17 06:08:10;;;;;;;1.40;1.30;;;8.20;99.90;;;;;;5070049;28;20239;-75
2021/04/17 06:10:36;;;;;;;2.43;1.60;;;8.20;99.90;;;;;;5069989;28;20681;-75
2021/04/17 06:13:02;;;;;;;1.37;1.27;;;8.20;99.90;;;;;;5070140;28;20218;-74
2021/04/17 06:15:29;;;;;;;1.30;1.20;;;8.20;99.90;;;;;;5069532;28;20243;-74
2021/04/17 06:17:55;;;;;;;2.60;1.50;;;8.20;99.90;;;;;;5075468;28;20281;-75
2021/04/17 06:20:22;;;;;;;2.67;1.27;;;8.20;99.90;;;;;;5078247;28;20199;-76
2021/04/17 06:22:48;;;;;;;2.30;1.50;;;8.20;99.90;;;;;;5079275;28;20519;-76
2021/04/17 06:25:15;;;;;;;3.30;1.30;;;8.20;99.90;;;;;;5081395;28;20230;-76
2021/04/17 06:27:41;;;;;;;1.77;1.10;;;8.20;99.90;;;;;;5073939;28;20285;-76
2021/04/17 06:30:08;;;;;;;1.20;1.10;;;8.20;99.90;;;;;;5078349;28;20225;-77
2021/04/17 06:32:34;;;;;;;2.10;1.60;;;8.30;99.90;;;;;;5080317;28;20202;-76
2021/04/17 06:35:01;;;;;;;1.70;1.30;;;8.30;99.90;;;;;;5082019;28;20649;-76
2021/04/17 06:37:27;;;;;;;2.03;1.33;;;8.30;99.90;;;;;;5079046;28;20204;-76
2021/04/17 06:39:53;;;;;;;2.43;1.10;;;8.30;99.90;;;;;;5077678;28;20726;-75
2021/04/17 06:42:21;;;;;;;5.60;1.30;;;8.30;99.90;;;;;;5079047;28;20220;-76
2021/04/17 06:44:47;;;;;;;2.40;1.50;;;8.30;99.90;;;;;;5071941;28;20531;-76
2021/04/17 06:47:15;;;;;;;3.90;1.20;;;8.30;99.90;;;;;;5069401;28;20228;-75
2021/04/17 06:49:43;;;;;;;1.53;1.33;;;8.30;99.90;;;;;;5069397;28;20203;-76
2021/04/17 06:52:11;;;;;;;2.37;2.20;;;8.30;99.90;;;;;;5069369;28;20222;-76
2021/04/17 06:54:38;;;;;;;1.53;1.40;;;8.30;99.90;;;;;;5069224;28;20208;-76
2021/04/17 06:57:04;;;;;;;3.60;1.77;;;8.30;99.90;;;;;;5087281;28;20206;-77
2021/04/17 06:59:31;;;;;;;2.30;1.50;;;8.30;99.90;;;;;;5086822;28;20207;-76
2021/04/17 07:01:58;;;;;;;3.03;1.77;;;8.30;99.90;;;;;;5080982;28;20283;-76
2021/04/17 07:04:24;;;;;;;3.93;1.37;;;8.40;99.90;;;;;;5069503;28;20636;-76
2021/04/17 07:06:50;;;;;;;4.17;1.77;;;8.40;99.90;;;;;;5067333;28;20737;-76
2021/04/17 07:09:19;;;;;;;3.27;1.90;;;8.50;99.90;;;;;;5067498;28;20661;-76
2021/04/17 07:11:45;;;;;;;3.37;1.60;;;8.50;99.90;;;;;;5072870;28;20231;-77
2021/04/17 07:14:14;;;;;;;5.10;1.80;;;8.50;99.90;;;;;;5066769;28;20211;-77
2021/04/17 07:16:58;;;;;;;1.63;1.40;;;8.60;99.90;;;;;;5069174;28;20318;-76
2021/04/17 07:19:25;;;;;;;2.23;1.10;;;8.60;99.90;;;;;;5066404;28;20265;-76
2021/04/17 07:21:51;;;;;;;2.93;1.30;;;8.60;99.90;;;;;;5066567;28;20200;-77
2021/04/17 07:24:24;;;;;;;3.40;1.57;;;8.60;99.90;;;;;;5066973;28;20237;-76
2021/04/17 07:26:51;;;;;;;1.87;1.27;;;8.50;99.90;;;;;;5069360;28;20314;-75
2021/04/17 07:29:17;;;;;;;6.13;1.87;;;8.50;99.90;;;;;;5069576;28;20786;-76
2021/04/17 07:31:53;;;;;;;2.07;1.10;;;8.60;99.90;;;;;;5086118;28;20202;-76
2021/04/17 07:34:21;;;;;;;3.97;1.63;;;8.60;99.90;;;;;;5066068;28;20708;-74
2021/04/17 07:36:51;;;;;;;2.83;1.57;;;8.60;99.90;;;;;;5081856;28;20219;-75
2021/04/17 07:39:42;;;;;;;10.03;1.80;;;8.70;99.90;;;;;;5070130;28;20663;-75
2021/04/17 07:42:10;;;;;;;1.93;1.30;;;8.80;99.90;;;;;;5055917;28;20215;-76
2021/04/17 07:44:40;;;;;;;2.53;1.20;;;8.80;99.90;;;;;;5066505;28;20216;-76
2021/04/17 07:47:08;;;;;;;2.10;1.30;;;8.90;99.90;;;;;;5066516;28;20234;-76
2021/04/17 07:49:34;;;;;;;2.47;1.50;;;8.90;99.90;;;;;;5065960;28;20701;-76
2021/04/17 07:52:05;;;;;;;2.50;1.60;;;8.90;99.90;;;;;;5066470;28;20273;-76
2021/04/17 07:54:32;;;;;;;3.13;1.50;;;9.00;99.90;;;;;;5066659;28;20276;-76
2021/04/17 07:57:05;;;;;;;4.90;1.50;;;9.00;99.90;;;;;;5066754;28;20302;-77
2021/04/17 07:59:31;;;;;;;1.90;1.53;;;9.00;99.90;;;;;;5066163;28;20192;-78
2021/04/17 08:01:59;;;;;;;7.53;1.80;;;9.10;99.90;;;;;;5066055;28;20266;-77
2021/04/17 08:04:27;;;;;;;2.07;1.40;;;9.10;99.90;;;;;;5068494;28;20237;-77
2021/04/17 08:06:54;;;;;;;2.30;1.57;;;9.10;99.90;;;;;;5078864;28;20235;-76
2021/04/17 08:09:22;;;;;;;6.93;1.93;;;9.10;99.90;;;;;;5082570;28;20202;-77
2021/04/17 08:11:51;;;;;;;2.00;1.57;;;9.10;99.90;;;;;;5090182;28;20728;-76
2021/04/17 08:14:20;;;;;;;3.73;1.87;;;9.10;99.90;;;;;;5077395;28;20194;-76
2021/04/17 08:16:47;;;;;;;2.27;1.60;;;9.10;99.90;;;;;;5087070;28;20310;-77
2021/04/17 08:19:14;;;;;;;2.13;1.60;;;9.20;99.90;;;;;;5091195;28;20206;-76
2021/04/17 08:21:40;;;;;;;2.17;1.60;;;9.20;99.90;;;;;;5089191;28;20210;-75
2021/04/17 08:24:09;;;;;;;2.37;1.97;;;9.30;99.90;;;;;;5071440;28;20214;-76
2021/04/17 08:26:35;;;;;;;10.70;2.60;;;9.40;99.90;;;;;;5071364;28;20275;-76
2021/04/17 08:29:03;;;;;;;6.33;1.97;;;9.40;99.90;;;;;;5074833;28;20198;-76
2021/04/17 08:31:31;;;;;;;4.27;2.00;;;9.50;99.90;;;;;;5085365;28;20369;-76
2021/04/17 08:34:13;;;;;;;3.93;1.67;;;9.50;99.90;;;;;;5091641;28;20601;-76
2021/04/17 08:36:42;;;;;;;2.23;1.80;;;9.60;99.90;;;;;;5091558;28;20262;-76
2021/04/17 08:39:34;;;;;;;5.03;2.27;;;9.60;99.90;;;;;;5091571;28;20567;-76
2021/04/17 08:42:01;;;;;;;4.77;1.90;;;9.70;99.90;;;;;;5091253;28;20556;-75
2021/04/17 08:44:30;;;;;;;2.70;1.90;;;9.80;99.90;;;;;;5091638;28;20210;-76
2021/04/17 08:46:59;;;;;;;3.53;2.00;;;9.90;99.90;;;;;;5091021;28;20221;-76
2021/04/17 08:49:26;;;;;;;10.77;2.33;;;10.00;99.90;;;;;;5070456;28;20206;-76
2021/04/17 08:52:14;;;;;;;3.93;1.70;;;10.00;99.90;;;;;;5070643;28;20200;-76
2021/04/17 08:54:40;;;;;;;2.60;1.83;;;10.00;99.90;;;;;;5082122;28;20297;-77
2021/04/17 08:57:13;;;;;;;2.73;1.77;;;10.00;99.90;;;;;;5078626;28;20211;-74
2021/04/17 08:59:40;;;;;;;2.57;1.83;;;10.10;99.90;;;;;;5068189;28;20200;-74
2021/04/17 09:02:09;;;;;;;3.67;2.00;;;10.20;99.90;;;;;;5068716;28;20254;-76
2021/04/17 09:04:38;;;;;;;3.63;1.80;;;10.10;99.90;;;;;;5069440;28;20657;-76
2021/04/17 09:07:16;;;;;;;2.80;1.90;;;10.10;99.90;;;;;;5068211;28;20239;-77
2021/04/17 09:09:43;;;;;;;2.23;1.87;;;10.10;99.90;;;;;;5078606;28;20191;-77
2021/04/17 09:12:28;;;;;;;5.23;1.73;;;10.20;99.90;;;;;;5072927;28;20211;-77
2021/04/17 09:15:02;;;;;;;4.10;1.83;;;10.30;99.90;;;;;;5088637;28;20695;-77
2021/04/17 09:17:47;;;;;;;4.40;2.37;;;10.40;99.90;;;;;;5082267;28;20217;-77
2021/04/17 09:20:38;;;;;;;2.73;2.00;;;10.50;99.90;;;;;;5079657;28;20196;-76
2021/04/17 09:23:05;;;;;;;5.77;2.20;;;10.60;99.90;;;;;;5067197;28;20654;-77
2021/04/17 09:25:44;;;;;;;3.70;1.80;;;10.70;99.90;;;;;;5067944;28;20203;-76
2021/04/17 09:28:10;;;;;;;4.83;2.17;;;10.70;99.90;;;;;;5068029;28;20235;-77
2021/04/17 09:30:37;;;;;;;4.27;1.90;;;10.80;99.90;;;;;;5067861;28;20603;-77
2021/04/17 09:33:06;;;;;;;3.30;2.10;;;10.80;99.90;;;;;;5067855;28;20204;-77
2021/04/17 09:35:36;;;;;;;3.60;1.77;;;10.80;99.90;;;;;;5067728;28;20203;-77
2021/04/17 09:38:06;;;;;;;4.93;2.33;;;10.80;99.90;;;;;;5082124;28;20207;-77
2021/04/17 09:40:34;;;;;;;6.07;2.17;;;10.80;99.90;;;;;;5072220;28;20245;-78
2021/04/17 09:43:02;;;;;;;10.87;2.60;;;10.90;99.90;;;;;;5073078;28;20435;-77
2021/04/17 09:45:32;;;;;;;2.87;2.07;;;11.00;99.90;;;;;;5088068;28;20287;-77
2021/04/17 09:47:59;;;;;;;4.77;2.00;;;11.00;99.90;;;;;;5088706;28;21011;-77
2021/04/17 09:50:28;;;;;;;7.67;2.53;;;11.10;99.90;;;;;;5087966;28;20618;-77
2021/04/17 09:52:54;;;;;;;6.10;2.10;;;11.10;99.90;;;;;;5088388;28;20210;-78
2021/04/17 09:55:21;;;;;;;5.60;2.13;;;11.20;99.90;;;;;;5087714;28;20207;-77
2021/04/17 09:57:48;;;;;;;5.83;2.50;;;11.30;99.90;;;;;;5088008;28;20261;-77
2021/04/17 10:00:23;;;;;;;3.50;2.20;;;11.40;99.90;;;;;;5087875;28;20236;-77
2021/04/17 10:02:49;;;;;;;5.33;2.20;;;11.50;99.90;;;;;;5087559;28;20199;-77
2021/04/17 10:05:30;;;;;;;3.73;2.10;;;11.60;99.90;;;;;;5076269;28;20206;-77
2021/04/17 10:07:58;;;;;;;3.53;2.23;;;11.70;99.90;;;;;;5082621;28;20593;-76
2021/04/17 10:10:33;;;;;;;3.43;2.20;;;11.80;99.90;;;;;;5067987;28;20207;-78
2021/04/17 10:12:59;;;;;;;7.27;2.83;;;11.90;99.90;;;;;;5068461;28;20233;-77
2021/04/17 10:15:28;;;;;;;7.90;2.37;;;12.00;99.90;;;;;;5086102;28;20717;-77
2021/04/17 10:17:56;;;;;;;5.77;2.63;;;12.00;99.90;;;;;;5080634;28;20281;-77
2021/04/17 10:20:23;;;;;;;4.73;2.37;;;12.00;99.90;;;;;;5067302;28;20214;-77
2021/04/17 10:22:51;;;;;;;3.57;2.30;;;12.00;99.90;;;;;;5067558;28;20216;-77
2021/04/17 10:25:33;;;;;;;5.00;2.30;;;12.10;99.90;;;;;;5067665;28;20212;-77
2021/04/17 10:28:14;;;;;;;6.30;2.70;;;12.30;99.90;;;;;;5076612;28;20218;-77
2021/04/17 10:30:42;;;;;;;3.37;2.57;;;12.40;99.90;;;;;;5088084;28;20230;-77
2021/04/17 10:33:16;;;;;;;3.33;2.70;;;12.50;99.90;;;;;;5086275;28;20226;-77
2021/04/17 10:35:42;;;;;;;8.40;2.70;;;12.60;99.90;;;;;;5087325;28;20202;-77
2021/04/17 10:38:08;;;;;;;3.33;2.17;;;12.70;99.90;;;;;;5089030;28;20207;-82
2021/04/17 10:40:36;;;;;;;9.90;3.10;;;13.00;99.90;;;;;;5089595;28;20214;-83
2021/04/17 10:43:05;;;;;;;4.47;2.60;;;13.30;99.90;;;;;;5087408;28;20203;-78
2021/04/17 10:45:40;;;;;;;4.43;2.97;;;13.40;99.90;;;;;;5079250;28;20264;-77
2021/04/17 10:48:09;;;;;;;4.77;2.73;;;13.40;99.90;;;;;;5085210;28;20230;-77
2021/04/17 10:50:37;;;;;;;5.63;2.80;;;13.50;99.90;;;;;;5089157;28;20208;-77
2021/04/17 10:53:06;;;;;;;6.87;2.60;;;13.60;99.90;;;;;;5089222;28;20582;-77
2021/04/17 10:55:39;;;;;;;5.00;2.73;;;13.70;99.90;;;;;;5089194;28;20215;-78
2021/04/17 10:58:18;;;;;;;4.33;2.90;;;13.80;99.90;;;;;;5089341;28;20211;-77
2021/04/17 11:00:48;;;;;;;4.03;2.43;;;13.80;99.90;;;;;;5089419;28;20210;-77
2021/04/17 11:03:14;;;;;;;16.23;3.40;;;13.80;99.90;;;;;;5088302;28;21052;-77
2021/04/17 11:05:41;;;;;;;7.17;3.10;;;13.80;99.90;;;;;;5088867;28;20206;-77
2021/04/17 11:08:07;;;;;;;5.73;3.10;;;13.90;99.90;;;;;;5088613;28;20239;-78
2021/04/17 11:10:36;;;;;;;5.70;3.00;;;13.90;99.90;;;;;;5088489;28;20627;-78
2021/04/17 11:13:04;;;;;;;13.90;3.47;;;13.90;99.80;;;;;;5088059;28;20690;-77
2021/04/17 11:15:32;;;;;;;10.97;3.40;;;13.80;99.80;;;;;;5087941;28;20760;-77
2021/04/17 11:18:19;;;;;;;5.20;2.97;;;13.80;99.90;;;;;;5088862;28;20206;-78
2021/04/17 11:20:54;;;;;;;5.47;2.97;;;13.70;99.90;;;;;;5088546;28;20241;-78
2021/04/17 11:23:41;;;;;;;12.03;2.70;;;13.80;99.90;;;;;;5088477;28;20191;-76
2021/04/17 11:26:11;;;;;;;49.80;6.00;;;13.90;99.90;;;;;;5088133;28;20209;-76
2021/04/17 11:28:41;;;;;;;10.13;3.20;;;14.30;99.90;;;;;;5087928;28;20780;-77
2021/04/17 11:31:08;;;;;;;5.20;2.87;;;14.40;99.90;;;;;;5088275;28;20556;-77
2021/04/17 11:33:35;;;;;;;6.20;2.87;;;14.40;99.70;;;;;;5085403;28;20207;-78
2021/04/17 11:36:01;;;;;;;3.50;2.87;;;14.40;99.60;;;;;;5087758;28;20206;-78
2021/04/17 11:38:28;;;;;;;3.67;3.07;;;14.40;99.90;;;;;;5087811;28;20714;-78
2021/04/17 11:40:55;;;;;;;4.93;3.17;;;14.20;99.70;;;;;;5087846;28;20755;-78
2021/04/17 11:43:21;;;;;;;5.90;3.03;;;14.10;99.50;;;;;;5081939;28;20253;-78
2021/04/17 11:45:49;;;;;;;5.77;2.97;;;13.90;99.50;;;;;;5087761;28;20203;-78
2021/04/17 11:48:15;;;;;;;4.67;3.17;;;13.80;99.90;;;;;;5087994;28;20226;-78
2021/04/17 11:50:41;;;;;;;6.50;2.80;;;13.80;99.80;;;;;;5087682;28;20283;-78
2021/04/17 11:53:07;;;;;;;6.60;3.50;;;13.70;99.80;;;;;;5087812;28;20215;-78
2021/04/17 11:55:34;;;;;;;3.37;2.77;;;13.70;99.90;;;;;;5087677;28;20211;-78
2021/04/17 11:58:00;;;;;;;6.77;3.27;;;13.80;99.90;;;;;;5087199;28;20252;-79
2021/04/17 12:00:26;;;;;;;4.73;2.97;;;13.80;99.90;;;;;;5065724;28;20269;-80
2021/04/17 12:02:53;;;;;;;3.07;2.60;;;13.90;99.90;;;;;;5070891;28;20206;-80
2021/04/17 12:05:20;;;;;;;6.50;3.60;;;13.90;99.90;;;;;;5083019;28;20252;-78
2021/04/17 12:07:46;;;;;;;7.63;3.30;;;13.90;99.90;;;;;;5085941;28;20591;-78
2021/04/17 12:10:16;;;;;;;4.77;2.90;;;13.90;99.90;;;;;;5085644;28;20661;-78
2021/04/17 12:12:42;;;;;;;4.93;3.63;;;13.80;99.90;;;;;;5086077;28;20203;-78
2021/04/17 12:15:09;;;;;;;6.50;4.00;;;13.70;99.90;;;;;;5086304;28;20245;-78
2021/04/17 12:17:35;;;;;;;7.03;3.97;;;13.60;99.90;;;;;;5086210;28;20217;-78
2021/04/17 12:20:03;;;;;;;8.60;3.03;;;13.50;99.90;;;;;;5086337;28;20242;-78
2021/04/17 12:22:29;;;;;;;7.47;3.43;;;13.50;99.90;;;;;;5085686;28;20214;-78
2021/04/17 12:24:56;;;;;;;5.03;3.30;;;13.60;99.90;;;;;;5086300;28;20218;-78
2021/04/17 12:27:22;;;;;;;4.77;3.50;;;13.60;99.90;;;;;;5085588;28;20613;-78
2021/04/17 12:29:48;;;;;;;4.80;3.50;;;13.50;99.90;;;;;;5086321;28;20265;-78
2021/04/17 12:32:14;;;;;;;6.00;3.27;;;13.50;99.90;;;;;;5086144;28;20260;-78
2021/04/17 12:34:40;;;;;;;5.67;3.80;;;13.50;99.90;;;;;;5068108;28;20243;-78
2021/04/17 12:37:08;;;;;;;4.67;3.60;;;13.60;99.90;;;;;;5065541;28;20214;-78
2021/04/17 12:39:34;;;;;;;4.10;3.63;;;13.60;99.90;;;;;;5065301;28;20247;-78
2021/04/17 12:42:00;;;;;;;5.13;3.33;;;13.70;99.90;;;;;;5065364;28;20219;-78
2021/04/17 12:44:27;;;;;;;3.73;3.07;;;13.80;99.90;;;;;;5065443;28;20215;-77
2021/04/17 12:46:53;;;;;;;5.37;3.30;;;14.00;99.90;;;;;;5065941;28;20238;-78
2021/04/17 12:49:19;;;;;;;4.40;3.50;;;14.10;99.90;;;;;;5085613;28;20219;-79
2021/04/17 12:51:45;;;;;;;8.20;3.37;;;14.20;99.90;;;;;;5085597;28;20214;-78
2021/04/17 12:54:12;;;;;;;5.33;3.70;;;14.20;99.90;;;;;;5085394;28;20206;-79
2021/04/17 12:56:38;;;;;;;5.33;3.50;;;14.20;99.90;;;;;;5077435;28;20249;-78